Latest Weather Observations for Tarcoola

IDS60801

Issued at 11:01 pm CST Wednesday 23 August 2017 (issued every 30 minutes, with the page automatically refreshed every 10 minutes)

About weather observations | Map of weather stations | Latest weather observations for SA | Other Formats
Station Details ID: 016098 Name: TARCOOLA AERO Lat: -30.71 Lon: 134.58 Height: 123.0 m
Data from the previous 72 hours. | See also: Recent months at Tarcoola
Date/Time
CST
Temp
°C
App
Temp
°C
Dew
Point
°C
Rel
Hum
%
Delta-T
°C
Wind Press
QNH
hPa
Press
MSL
hPa
Rain since
9am
mm
Dir  Spd
km/h
Gust
km/h
Spd
kts
Gust
kts
23/11:00pm 11.6 9.8 5.3 65 2.9 S 4 7 2 4 1027.1 1027.2 0.0
23/10:30pm 12.5 9.5 5.9 64 3.1 SSW 11 13 6 7 1027.0 1027.0 0.0
23/10:00pm 14.5 10.8 6.1 57 4.0 S 15 22 8 12 1026.9 1026.9 0.0
23/09:30pm 15.3 11.6 6.1 54 4.4 S 15 19 8 10 1026.6 1026.6 0.0
23/09:00pm 16.2 11.6 5.5 49 5.1 S 19 28 10 15 1026.2 1026.2 0.0
23/08:30pm 17.1 11.9 3.8 41 6.2 S 20 28 11 15 1025.8 1025.8 0.0
23/08:00pm 17.7 12.5 2.5 36 7.0 S 19 26 10 14 1025.4 1025.4 0.0
23/07:30pm 18.3 12.9 1.3 32 7.6 SSW 19 24 10 13 1025.1 1025.1 0.0
23/07:00pm 18.7 14.0 0.8 30 8.0 S 15 19 8 10 1024.5 1024.5 0.0
23/06:30pm 18.9 14.4 0.0 28 8.3 SSW 13 17 7 9 1024.0 1024.0 0.0
23/06:00pm 20.6 15.4 -0.1 25 9.2 SSW 17 20 9 11 1023.5 1023.5 0.0
23/05:30pm 21.9 16.7 0.4 24 9.7 S 17 24 9 13 1023.1 1023.1 0.0
23/05:00pm 21.9 16.3 -0.1 23 9.9 SSW 19 28 10 15 1022.9 1022.9 0.0
23/04:30pm 22.2 17.7 -0.5 22 10.1 SW 13 19 7 10 1022.8 1022.8 0.0
23/04:00pm 23.6 19.1 -0.6 20 11.0 S 13 24 7 13 1022.8 1022.8 0.0
23/03:30pm 22.3 17.8 -0.4 22 10.2 SW 13 24 7 13 1022.8 1022.8 0.0
23/03:00pm 22.9 17.7 0.1 22 10.4 WSW 17 22 9 12 1022.9 1022.9 0.0
23/02:30pm 23.0 19.2 -0.5 21 10.6 WSW 9 19 5 10 1023.1 1023.1 0.0
23/02:00pm 22.8 18.1 0.6 23 10.2 S 15 26 8 14 1023.2 1023.2 0.0
23/01:30pm 22.6 18.4 1.6 25 9.8 SSW 13 22 7 12 1023.5 1023.5 0.0
23/01:00pm 21.9 17.6 1.0 25 9.6 WSW 13 24 7 13 1024.1 1024.1 0.0
23/12:30pm 21.0 16.4 1.8 28 8.9 S 15 26 8 14 1024.4 1024.4 0.0
23/12:00pm 20.9 17.9 2.2 29 8.7 NW 7 15 4 8 1024.7 1024.7 0.0
23/11:30am 20.4 16.7 2.3 30 8.4 WSW 11 19 6 10 1025.1 1025.1 0.0
23/11:00am 19.5 16.2 2.4 32 7.9 WNW 9 15 5 8 1025.4 1025.4 0.0
23/10:30am 18.6 15.4 2.9 35 7.3 NW 9 15 5 8 1025.6 1025.6 0.0
23/10:00am 17.4 14.2 3.0 38 6.7 NW 9 15 5 8 1025.6 1025.6 0.0
23/09:30am 15.9 13.3 3.0 42 5.9 NNW 6 11 3 6 1025.5 1025.5 0.0
23/09:00am 13.9 10.7 3.1 48 4.8 NNE 9 11 5 6 1025.3 1025.3 0.0
23/08:30am 11.2 9.7 2.8 56 3.6 CALM 0 0 0 0 1025.1 1025.1 0.0
23/08:00am 6.9 5.1 1.4 68 2.2 CALM 0 0 0 0 1024.8 1024.8 0.0
23/07:30am 3.6 1.6 0.0 77 1.3 CALM 0 0 0 0 1024.5 1024.5 0.0
23/07:00am 2.5 -0.8 -1.1 77 1.3 NE 6 7 3 4 1024.2 1024.2 0.0
23/06:30am 2.9 -0.9 -0.7 77 1.3 NE 9 9 5 5 1023.9 1023.9 0.0
23/06:00am 3.2 1.1 -0.6 76 1.4 CALM 0 0 0 0 1023.6 1023.6 0.0
23/05:30am 3.3 1.3 -0.3 77 1.3 CALM 0 0 0 0 1023.4 1023.4 0.0
23/05:00am 3.5 1.4 -0.7 74 1.6 CALM 0 0 0 0 1023.1 1023.1 0.0
23/04:30am 3.7 1.3 -0.5 74 1.6 WSW 2 6 1 3 1023.0 1023.0 0.0
23/04:00am 3.7 0.3 -0.3 75 1.5 WSW 7 9 4 5 1023.1 1023.1 0.0
23/03:30am 3.9 0.5 -0.3 74 1.6 WSW 7 9 4 5 1023.1 1023.1 0.0
23/03:00am 4.0 0.8 -0.2 74 1.6 SW 6 9 3 5 1023.0 1023.0 0.0
23/02:30am 4.4 1.1 -0.2 72 1.7 WSW 7 7 4 4 1023.1 1023.1 0.0
23/02:00am 5.0 3.0 -0.2 69 2.0 CALM 0 0 0 0 1022.8 1022.8 0.0
23/01:30am 5.8 3.9 0.6 69 2.0 CALM 0 4 0 2 1022.8 1022.8 0.0
23/01:00am 6.7 3.5 1.0 67 2.3 SW 7 7 4 4 1022.8 1022.8 0.0
23/12:30am 6.5 3.2 0.0 63 2.5 E 7 11 4 6 1022.7 1022.7 0.0
23/12:00am 8.8 5.4 1.7 61 2.9 ENE 9 9 5 5 1022.7 1022.7 0.0
 
Date/Time
CST
Temp
°C
App
Temp
°C
Dew
Point
°C
Rel
Hum
%
Delta-T
°C
Wind Press
QNH
hPa
Press
MSL
hPa
Rain since
9am
mm
Dir  Spd
km/h
Gust
km/h
Spd
kts
Gust
kts
22/11:30pm 8.3 4.8 1.2 61 2.9 ENE 9 13 5 7 1022.8 1022.8 0.0
22/11:00pm 8.1 4.1 0.6 59 3.0 ENE 11 11 6 6 1022.9 1022.9 0.0
22/10:30pm 8.3 5.3 0.8 59 3.0 NE 6 9 3 5 1023.1 1023.1 0.0
22/10:00pm 8.9 5.9 0.9 57 3.3 NNE 6 7 3 4 1023.0 1023.0 0.0
22/09:30pm 10.0 7.1 1.4 55 3.6 ENE 6 6 3 3 1023.0 1023.0 0.0
22/09:00pm 9.9 6.7 0.8 53 3.7 NE 7 9 4 5 1023.0 1023.0 0.0
22/08:30pm 10.9 9.1 0.9 50 4.1 CALM 0 0 0 0 1023.0 1023.0 0.0
22/08:00pm 11.7 9.1 1.1 48 4.5 N 4 7 2 4 1022.7 1022.7 0.0
22/07:30pm 13.1 9.7 1.8 46 4.9 N 9 9 5 5 1022.3 1022.3 0.0
22/07:00pm 15.1 12.2 1.6 40 5.9 N 6 7 3 4 1022.1 1022.1 0.0
22/06:30pm 17.9 16.1 1.4 33 7.4 CALM 0 0 0 0 1022.0 1022.0 0.0
22/06:00pm 19.2 16.3 1.2 30 8.1 SW 6 7 3 4 1022.0 1022.0 0.0
22/05:30pm 20.1 16.9 1.0 28 8.6 NW 7 9 4 5 1021.9 1021.9 0.0
22/05:00pm 20.3 17.1 0.7 27 8.9 W 7 11 4 6 1021.7 1021.7 0.0
22/04:30pm 20.7 17.6 1.6 28 8.8 NW 7 11 4 6 1021.7 1021.7 0.0
22/04:00pm 20.3 17.2 1.2 28 8.7 WSW 7 15 4 8 1021.6 1021.6 0.0
22/03:30pm 20.3 17.2 1.2 28 8.7 W 7 11 4 6 1021.5 1021.5 0.0
22/03:00pm 20.3 17.0 2.2 30 8.4 NW 9 17 5 9 1021.9 1021.9 0.0
22/02:30pm 19.5 16.6 2.8 33 7.8 ENE 7 13 4 7 1021.9 1021.9 0.0
22/02:00pm 18.0 15.2 2.3 35 7.2 ESE 6 11 3 6 1022.2 1022.2 0.0
22/01:30pm 18.2 15.0 3.3 37 6.9 E 9 17 5 9 1022.3 1022.3 0.0
22/01:00pm 17.5 15.3 3.4 39 6.6 SW 4 9 2 5 1023.0 1023.0 0.0
22/12:30pm 17.2 14.6 4.2 42 6.1 ESE 7 11 4 6 1023.9 1023.9 0.0
22/12:00pm 16.5 13.5 3.9 43 5.9 ENE 9 15 5 8 1023.9 1023.9 0.0
22/11:30am 15.7 12.8 4.4 47 5.3 SSE 9 17 5 9 1024.4 1024.4 0.0
22/11:00am 15.5 12.6 4.8 49 5.1 ESE 9 19 5 10 1024.3 1024.3 0.0
22/10:30am 14.6 12.3 4.6 51 4.6 ESE 6 11 3 6 1024.9 1024.9 0.0
22/10:00am 14.2 11.4 5.3 55 4.2 SE 9 15 5 8 1025.1 1025.1 0.0
22/09:30am 13.3 10.5 5.2 58 3.8 S 9 17 5 9 1025.2 1025.2 0.0
22/09:00am 12.8 9.3 5.5 61 3.4 S 13 20 7 11 1024.8 1024.8 0.0
22/08:30am 11.5 8.4 5.6 67 2.7 SSE 11 15 6 8 1024.4 1024.4 0.0
22/08:00am 7.2 5.6 4.3 82 1.3 SW 2 7 1 4 1024.3 1024.3 0.0
22/07:30am 4.8 1.6 3.3 90 0.6 SW 9 13 5 7 1024.2 1024.2 0.0
22/07:00am 2.8 -0.4 0.9 87 0.7 WSW 7 9 4 5 1024.1 1024.1 0.0
22/06:30am 3.6 0.6 1.8 88 0.7 WSW 7 9 4 5 1023.7 1023.7 0.0
22/06:00am 3.9 0.9 1.9 87 0.8 WSW 7 9 4 5 1023.4 1023.4 0.0
22/05:30am 3.9 0.5 1.6 85 0.9 WSW 9 11 5 6 1023.1 1023.1 0.0
22/05:00am 4.8 1.8 2.0 82 1.1 WSW 7 9 4 5 1022.7 1022.7 0.0
22/04:30am 6.0 2.8 3.2 82 1.2 S 9 11 5 6 1022.5 1022.5 0.0
22/04:00am 5.3 3.7 2.3 81 1.2 CALM 0 0 0 0 1022.5 1022.5 0.0
22/03:30am 6.3 4.8 2.9 79 1.4 CALM 0 0 0 0 1022.4 1022.4 0.0
22/03:00am 6.9 5.4 3.2 77 1.6 CALM 0 0 0 0 1022.4 1022.4 0.0
22/02:30am 7.3 4.6 3.5 77 1.6 WSW 7 7 4 4 1022.5 1022.5 0.0
22/02:00am 8.2 6.5 3.9 74 1.9 WSW 2 6 1 3 1022.5 1022.5 0.0
22/01:30am 8.7 6.3 4.1 73 2.0 W 6 9 3 5 1022.6 1022.6 0.0
22/01:00am 8.8 5.7 3.6 70 2.3 W 9 9 5 5 1022.7 1022.7 0.0
22/12:30am 10.1 7.1 4.3 67 2.6 SW 9 11 5 6 1022.5 1022.5 0.0
22/12:00am 11.5 8.3 4.9 64 3.0 SSW 11 13 6 7 1022.4 1022.4 0.0
 
Date/Time
CST
Temp
°C
App
Temp
°C
Dew
Point
°C
Rel
Hum
%
Delta-T
°C
Wind Press
QNH
hPa
Press
MSL
hPa
Rain since
9am
mm
Dir  Spd
km/h
Gust
km/h
Spd
kts
Gust
kts
21/11:30pm 12.2 8.6 5.1 62 3.3 SSW 13 20 7 11 1022.4 1022.4 0.0
21/11:00pm 13.0 9.4 5.2 59 3.6 SSW 13 17 7 9 1022.3 1022.3 0.0
21/10:30pm 13.6 9.3 5.3 57 3.9 SSW 17 24 9 13 1022.6 1022.6 0.0
21/10:00pm 13.7 9.4 5.3 57 4.0 SSW 17 24 9 13 1022.6 1022.6 0.0
21/09:30pm 14.0 9.4 5.6 57 4.0 SSW 19 28 10 15 1022.5 1022.5 0.0
21/09:00pm 14.2 8.5 4.8 53 4.4 SW 24 32 13 17 1022.4 1022.4 0.0
21/08:30pm 14.5 10.1 4.8 52 4.5 SSW 17 28 9 15 1022.3 1022.3 0.0
21/08:00pm 14.9 9.6 4.9 51 4.7 SW 22 28 12 15 1021.7 1021.7 0.0
21/07:30pm 14.8 9.4 4.5 50 4.8 SSW 22 30 12 16 1021.1 1021.1 0.0
21/07:00pm 15.4 9.3 4.8 49 5.0 SSW 26 39 14 21 1020.6 1020.6 0.0
21/06:30pm 15.5 9.8 5.1 50 4.9 SW 24 32 13 17 1019.9 1019.9 0.0
21/06:00pm 16.0 10.1 5.6 50 5.0 SSW 26 43 14 23 1019.8 1019.8 0.0
21/05:30pm 16.5 10.2 5.5 48 5.3 SW 28 43 15 23 1019.3 1019.3 0.0
21/05:00pm 18.0 12.1 5.6 44 6.1 SW 26 39 14 21 1018.7 1018.7 0.0
21/04:34pm 17.7 10.9 5.0 43 6.1 SW 30 54 16 29 1018.3 1018.3 0.0
21/04:30pm 18.2 11.8 5.4 43 6.2 SW 28 41 15 22 1018.3 1018.3 0.0
21/04:00pm 18.2 10.7 4.7 41 6.5 SW 33 44 18 24 1018.2 1018.2 0.0
21/03:30pm 17.9 11.4 4.5 41 6.4 SW 28 44 15 24 1018.1 1018.1 0.0
21/03:00pm 17.8 10.6 5.1 43 6.1 SW 32 48 17 26 1017.9 1017.9 0.0
21/02:51pm 17.6 10.9 5.5 45 5.9 SW 30 48 16 26 1018.0 1018.0 0.0
21/02:30pm 18.6 11.5 5.5 42 6.4 SW 32 43 17 23 1017.9 1017.9 0.0
21/02:00pm 18.6 11.3 5.5 42 6.4 SW 33 46 18 25 1017.9 1017.9 0.0
21/01:30pm 17.8 10.0 5.1 43 6.1 WSW 35 50 19 27 1017.9 1017.9 0.0
21/01:00pm 18.0 10.6 4.9 42 6.3 SW 33 50 18 27 1017.8 1017.8 0.0
21/12:56pm 17.8 10.8 6.0 46 5.8 SW 32 50 17 27 1017.8 1017.8 0.0
21/12:30pm 17.3 10.2 5.6 46 5.7 SW 32 46 17 25 1018.0 1018.0 0.0
21/12:00pm 16.8 9.1 6.9 52 4.9 SW 37 50 20 27 1018.0 1018.0 0.0
21/11:30am 16.7 10.3 6.8 52 4.9 WSW 30 44 16 24 1017.9 1017.9 0.0
21/11:00am 16.2 9.3 7.2 55 4.5 WSW 33 48 18 26 1017.7 1017.7 0.0
21/10:30am 16.3 9.5 7.5 56 4.4 WSW 33 52 18 28 1017.5 1017.5 0.0
21/10:05am 15.7 8.4 7.2 57 4.2 WSW 35 54 19 29 1017.1 1017.1 0.0
21/10:00am 16.0 9.2 7.5 57 4.3 WSW 33 50 18 27 1017.0 1017.0 0.0
21/09:30am 15.0 7.9 8.0 63 3.5 WSW 35 50 19 27 1016.9 1016.9 0.0
21/09:00am 14.6 8.0 8.5 67 3.1 WSW 33 44 18 24 1016.7 1016.7 0.0
21/08:30am 13.7 7.2 8.3 70 2.7 WSW 32 41 17 22 1016.3 1016.3 0.0
21/08:00am 12.5 8.4 8.6 77 2.0 WSW 20 28 11 15 1015.8 1015.8 0.0
21/07:30am 11.9 7.9 8.4 79 1.7 WSW 19 26 10 14 1015.2 1015.2 0.0
21/07:00am 11.6 7.0 8.1 79 1.7 WSW 22 32 12 17 1014.7 1014.7 0.0
21/06:30am 11.5 7.2 8.0 79 1.7 WSW 20 28 11 15 1014.3 1014.3 0.0
21/06:00am 11.7 7.5 8.2 79 1.7 WSW 20 26 11 14 1013.9 1013.9 0.0
21/05:30am 11.7 7.1 8.0 78 1.8 WSW 22 32 12 17 1013.4 1013.4 0.0
21/05:00am 11.3 7.2 8.0 80 1.6 WSW 19 24 10 13 1013.2 1013.1 0.0
21/04:30am 11.7 7.3 7.6 76 2.0 W 20 30 11 16 1013.0 1012.9 0.0
21/04:00am 12.1 7.9 7.4 73 2.3 W 19 26 10 14 1013.0 1012.9 0.0
21/03:30am 11.5 7.1 6.6 72 2.3 W 19 24 10 13 1012.6 1012.5 0.0
21/03:00am 11.8 7.3 6.3 69 2.6 WSW 19 26 10 14 1012.7 1012.6 0.0
21/02:30am 12.3 6.8 5.7 64 3.1 W 24 33 13 18 1012.8 1012.7 0.0
21/02:00am 11.9 7.0 5.1 63 3.1 W 20 28 11 15 1012.8 1012.7 0.0
21/01:30am 9.5 6.3 2.8 63 2.9 W 9 13 5 7 1013.0 1012.9 0.0
21/01:00am 9.3 6.5 2.9 64 2.8 WNW 7 13 4 7 1013.1 1013.0 0.0
21/12:30am 9.6 6.2 1.8 58 3.3 WSW 9 11 5 6 1013.2 1013.1 0.0
21/12:00am 10.7 6.9 1.8 54 3.8 WSW 11 13 6 7 1013.5 1013.5 0.0
 
Date/Time
CST
Temp
°C
App
Temp
°C
Dew
Point
°C
Rel
Hum
%
Delta-T
°C
Wind Press
QNH
hPa
Press
MSL
hPa
Rain since
9am
mm
Dir  Spd
km/h
Gust
km/h
Spd
kts
Gust
kts
20/11:30pm 12.5 7.9 1.5 47 4.7 W 15 19 8 10 1013.6 1013.6 0.0

Other Formats:

Comma delimited format used in spreadsheet applications
http://www.bom.gov.au/fwo/IDS60801/IDS60801.94655.axf

JavaScript Object Notation format (JSON) in row-major order
http://www.bom.gov.au/fwo/IDS60801/IDS60801.94655.json